Time;durP1;ratioP1;P1;durP2;ratioP2;P2;SDS_P1;SDS_P2;PMS_P1;PMS_P2;Temp;Humidity;BMP_temperature;BMP_pressure;BME280_temperature;BME280_humidity;BME280_pressure;Samples;Min_cycle;Max_cycle;Signal;HPM_P1;HPM_P2
2022/06/14 00:02:25;;;;;;;8.88;1.02;;;13.40;99.90;;;;;;5024057;28;20084;-46
2022/06/14 00:04:51;;;;;;;6.65;1.17;;;13.30;99.90;;;;;;5035215;28;20038;-47
2022/06/14 00:07:17;;;;;;;5.82;0.80;;;13.30;99.90;;;;;;5035970;28;20045;-47
2022/06/14 00:09:44;;;;;;;4.85;0.88;;;13.30;99.90;;;;;;5041302;28;20419;-50
2022/06/14 00:12:12;;;;;;;7.50;1.00;;;13.30;99.90;;;;;;5040227;28;20038;-47
2022/06/14 00:14:38;;;;;;;5.50;1.05;;;13.30;99.90;;;;;;5041434;28;20029;-47
2022/06/14 00:17:04;;;;;;;8.52;1.42;;;13.20;99.90;;;;;;5038546;28;20479;-47
2022/06/14 00:19:31;;;;;;;4.72;0.70;;;13.20;99.90;;;;;;5045613;28;20037;-47
2022/06/14 00:22:01;;;;;;;5.45;0.95;;;13.20;99.90;;;;;;5036698;28;20380;-47
2022/06/14 00:24:28;;;;;;;8.73;1.52;;;13.20;99.90;;;;;;5030576;28;20131;-47
2022/06/14 00:26:54;;;;;;;6.07;0.80;;;13.10;99.90;;;;;;5052962;28;20053;-48
2022/06/14 00:29:20;;;;;;;8.07;0.98;;;13.10;99.90;;;;;;5040851;28;20032;-46
2022/06/14 00:31:45;;;;;;;6.60;0.93;;;13.10;99.90;;;;;;5041263;28;20037;-46
2022/06/14 00:34:11;;;;;;;7.22;1.27;;;13.10;99.90;;;;;;5035202;28;20086;-48
2022/06/14 00:36:37;;;;;;;8.45;1.17;;;13.00;99.90;;;;;;5036990;28;20052;-46
2022/06/14 00:39:08;;;;;;;7.60;1.30;;;13.00;99.90;;;;;;5040105;28;20044;-47
2022/06/14 00:41:40;;;;;;;8.95;1.25;;;13.00;99.90;;;;;;5046495;28;20048;-46
2022/06/14 00:44:12;;;;;;;5.78;0.70;;;13.00;99.90;;;;;;5035775;28;20060;-46
2022/06/14 00:46:59;;;;;;;6.53;1.05;;;12.90;99.90;;;;;;5036810;28;20526;-48
2022/06/14 00:49:45;;;;;;;7.43;0.77;;;12.90;99.90;;;;;;5039885;28;20033;-47
2022/06/14 00:52:21;;;;;;;6.93;1.30;;;12.90;99.90;;;;;;5032826;28;20041;-49
2022/06/14 00:54:53;;;;;;;6.53;1.05;;;12.90;99.90;;;;;;5039563;28;20549;-48
2022/06/14 00:57:24;;;;;;;6.47;0.95;;;12.80;99.90;;;;;;5036750;28;20594;-51
2022/06/14 00:59:57;;;;;;;7.53;1.23;;;12.80;99.90;;;;;;5038248;28;20580;-47
2022/06/14 01:02:30;;;;;;;9.85;1.45;;;12.80;99.90;;;;;;5037797;28;20049;-48
2022/06/14 01:04:59;;;;;;;7.05;1.30;;;12.80;99.90;;;;;;5043975;28;20041;-46
2022/06/14 01:07:32;;;;;;;6.78;1.30;;;12.70;99.90;;;;;;5032013;28;20083;-47
2022/06/14 01:10:28;;;;;;;10.77;1.58;;;12.70;99.90;;;;;;5035840;28;20065;-49
2022/06/14 01:12:58;;;;;;;5.70;0.85;;;12.70;99.90;;;;;;5037444;28;20040;-47
2022/06/14 01:15:28;;;;;;;6.88;1.30;;;12.60;99.90;;;;;;5045486;28;20041;-48
2022/06/14 01:18:04;;;;;;;7.10;1.17;;;12.70;99.90;;;;;;5039176;28;20307;-47
2022/06/14 01:20:31;;;;;;;8.13;1.30;;;12.60;99.90;;;;;;5041530;28;20083;-47
2022/06/14 01:22:57;;;;;;;9.35;1.35;;;12.60;99.90;;;;;;5036472;28;20044;-48
2022/06/14 01:25:28;;;;;;;8.27;1.25;;;12.60;99.90;;;;;;5034980;28;20099;-48
2022/06/14 01:27:55;;;;;;;7.30;1.00;;;12.50;99.90;;;;;;5034961;28;20046;-46
2022/06/14 01:30:30;;;;;;;5.95;1.15;;;12.60;99.90;;;;;;5027307;28;20119;-47
2022/06/14 01:33:02;;;;;;;8.43;1.15;;;12.50;99.90;;;;;;5034819;28;20091;-47
2022/06/14 01:35:32;;;;;;;8.00;1.42;;;12.50;99.90;;;;;;5033120;28;20072;-45
2022/06/14 01:38:02;;;;;;;7.32;1.27;;;12.50;99.90;;;;;;5041456;28;20041;-49
2022/06/14 01:40:55;;;;;;;7.30;1.20;;;12.50;99.90;;;;;;5040483;28;20060;-48
2022/06/14 01:43:47;;;;;;;9.27;1.10;;;12.50;99.90;;;;;;5035352;28;20045;-47
2022/06/14 01:46:29;;;;;;;9.05;1.40;;;12.40;99.90;;;;;;5037115;28;20041;-47
2022/06/14 01:52:32;;;;;;;5.60;1.00;;;12.40;99.90;;;;;;5039354;28;20107;-47
2022/06/14 01:55:07;;;;;;;7.40;1.30;;;12.40;99.90;;;;;;5029021;28;20049;-46
2022/06/14 01:58:01;;;;;;;10.15;1.42;;;12.40;99.90;;;;;;5035828;28;20117;-46
2022/06/14 02:00:39;;;;;;;8.07;1.40;;;12.40;99.90;;;;;;5032852;28;20038;-47
2022/06/14 02:06:21;;;;;;;11.13;1.50;;;12.50;99.90;;;;;;5041630;28;20037;-48
2022/06/14 02:09:01;;;;;;;9.13;1.33;;;12.50;99.90;;;;;;5033808;28;20147;-46
2022/06/14 02:11:31;;;;;;;7.65;1.30;;;12.50;99.90;;;;;;5036648;28;20040;-47
2022/06/14 02:14:19;;;;;;;7.38;1.17;;;12.50;99.90;;;;;;5042930;28;20045;-46
2022/06/14 02:16:52;;;;;;;9.30;1.27;;;12.50;99.90;;;;;;5037948;28;20060;-47
2022/06/14 02:19:42;;;;;;;6.28;1.20;;;12.50;99.90;;;;;;5038956;28;20045;-49
2022/06/14 02:22:13;;;;;;;7.18;1.02;;;12.60;99.90;;;;;;5029318;28;20053;-47
2022/06/14 02:24:49;;;;;;;5.25;0.95;;;12.60;99.90;;;;;;5026234;28;20045;-48
2022/06/14 02:27:27;;;;;;;7.55;1.15;;;12.60;99.90;;;;;;5033816;28;20071;-48
2022/06/14 02:30:03;;;;;;;7.18;1.25;;;12.60;99.90;;;;;;5032224;28;20038;-49
2022/06/14 02:32:39;;;;;;;7.07;0.85;;;12.70;99.90;;;;;;5037873;28;20535;-48
2022/06/14 02:35:41;;;;;;;7.07;1.08;;;12.60;99.90;;;;;;5033468;28;20056;-48
2022/06/14 02:38:21;;;;;;;5.93;0.98;;;12.70;99.90;;;;;;5033534;28;20045;-48
2022/06/14 02:41:07;;;;;;;9.32;1.42;;;12.70;99.90;;;;;;5036796;28;20053;-49
2022/06/14 02:43:50;;;;;;;6.50;1.00;;;12.70;99.90;;;;;;5035904;28;20128;-48
2022/06/14 02:46:22;;;;;;;9.68;1.13;;;12.70;99.90;;;;;;5035117;28;20040;-48
2022/06/14 02:48:59;;;;;;;7.45;1.30;;;12.70;99.90;;;;;;5033257;28;20510;-50
2022/06/14 02:51:35;;;;;;;7.85;1.33;;;12.70;99.90;;;;;;5034657;28;20045;-47
2022/06/14 02:54:08;;;;;;;8.20;1.58;;;12.70;99.90;;;;;;5038082;28;20076;-49
2022/06/14 02:56:40;;;;;;;5.03;1.02;;;12.60;99.90;;;;;;5025249;28;20045;-47
2022/06/14 02:59:13;;;;;;;8.80;1.27;;;12.60;99.90;;;;;;5036761;28;20124;-48
2022/06/14 03:01:45;;;;;;;7.63;1.25;;;12.60;99.90;;;;;;5034736;28;20466;-49
2022/06/14 03:04:36;;;;;;;7.83;1.07;;;12.60;99.90;;;;;;5031859;28;20040;-51
2022/06/14 03:07:17;;;;;;;6.43;1.30;;;12.60;99.90;;;;;;5035331;28;20033;-50
2022/06/14 03:09:46;;;;;;;4.82;1.15;;;12.60;99.90;;;;;;5040435;28;20553;-48
2022/06/14 03:12:38;;;;;;;9.73;1.17;;;12.60;99.90;;;;;;5047006;28;20314;-48
2022/06/14 03:15:19;;;;;;;7.53;1.15;;;12.50;99.90;;;;;;5038064;28;20081;-48
2022/06/14 03:18:03;;;;;;;6.80;0.93;;;12.50;99.90;;;;;;5037334;28;20052;-51
2022/06/14 03:20:54;;;;;;;7.18;1.10;;;12.50;99.90;;;;;;5041994;28;20041;-50
2022/06/14 03:23:41;;;;;;;6.68;0.88;;;12.50;99.90;;;;;;5036075;28;20041;-49
2022/06/14 03:26:29;;;;;;;6.10;1.00;;;12.50;99.90;;;;;;5036123;28;20035;-49
2022/06/14 03:29:06;;;;;;;8.85;1.30;;;12.50;99.90;;;;;;5042014;28;20458;-48
2022/06/14 03:31:37;;;;;;;5.65;1.15;;;12.40;99.90;;;;;;5037947;28;20442;-49
2022/06/14 03:34:23;;;;;;;7.63;1.15;;;12.40;99.90;;;;;;5042060;28;20041;-48
2022/06/14 03:36:51;;;;;;;7.15;1.20;;;12.50;99.90;;;;;;5036989;28;20049;-48
2022/06/14 03:39:23;;;;;;;9.75;1.20;;;12.40;99.90;;;;;;5042070;28;20068;-48
2022/06/14 03:41:51;;;;;;;8.15;1.17;;;12.50;99.90;;;;;;5038657;28;20147;-49
2022/06/14 03:44:19;;;;;;;8.68;1.27;;;12.40;99.90;;;;;;5044644;28;20045;-46
2022/06/14 03:46:50;;;;;;;8.27;1.20;;;12.40;99.90;;;;;;5037371;28;20056;-47
2022/06/14 03:49:20;;;;;;;5.18;1.48;;;12.40;99.90;;;;;;5034586;28;20037;-46
2022/06/14 03:52:17;;;;;;;7.03;1.13;;;12.40;99.90;;;;;;5042576;28;20039;-47
2022/06/14 03:54:54;;;;;;;6.95;0.90;;;12.40;99.90;;;;;;5041654;28;20040;-47
2022/06/14 03:57:51;;;;;;;9.00;1.60;;;12.40;99.90;;;;;;5044897;28;20123;-49
2022/06/14 04:00:29;;;;;;;7.60;1.17;;;12.40;99.90;;;;;;5033970;28;20041;-47
2022/06/14 04:03:12;;;;;;;6.82;0.90;;;12.40;99.90;;;;;;5043596;28;20132;-47
2022/06/14 04:06:11;;;;;;;8.02;2.05;;;12.40;99.90;;;;;;5040621;28;20051;-48
2022/06/14 04:08:53;;;;;;;6.57;1.33;;;12.40;99.90;;;;;;5036448;28;20045;-48
2022/06/14 04:11:40;;;;;;;6.82;1.30;;;12.30;99.90;;;;;;5044993;28;20044;-47
2022/06/14 04:14:12;;;;;;;6.55;0.82;;;12.40;99.90;;;;;;5042414;28;20475;-51
2022/06/14 04:16:57;;;;;;;5.45;1.33;;;12.40;99.90;;;;;;5036848;28;20037;-48
2022/06/14 04:19:30;;;;;;;5.45;1.10;;;12.40;99.90;;;;;;5038730;28;20046;-49
2022/06/14 04:22:10;;;;;;;6.60;1.08;;;12.40;99.90;;;;;;5035304;28;20579;-47
2022/06/14 04:24:43;;;;;;;6.93;1.10;;;12.40;99.90;;;;;;5040252;28;20428;-48
2022/06/14 04:27:15;;;;;;;;;;;12.40;99.90;;;;;;5040135;28;20131;-48
2022/06/14 04:30:20;;;;;;;7.53;0.80;;;12.30;99.90;;;;;;5035693;28;20397;-49
2022/06/14 04:32:58;;;;;;;6.55;1.20;;;12.40;99.90;;;;;;5037103;28;20041;-48
2022/06/14 04:35:36;;;;;;;7.88;1.10;;;12.30;99.90;;;;;;5040650;28;20342;-49
2022/06/14 04:38:17;;;;;;;5.72;0.82;;;12.40;99.90;;;;;;5037433;28;20033;-47
2022/06/14 04:40:52;;;;;;;7.57;1.50;;;12.30;99.90;;;;;;5038264;28;20060;-47
2022/06/14 04:43:24;;;;;;;8.13;1.38;;;12.30;99.90;;;;;;5041154;28;20075;-48
2022/06/14 04:46:00;;;;;;;6.13;1.17;;;12.40;99.90;;;;;;5032883;28;20052;-49
2022/06/14 04:48:44;;;;;;;4.10;0.80;;;12.40;99.90;;;;;;5045846;28;20041;-47
2022/06/14 04:51:21;;;;;;;8.82;0.88;;;12.40;99.90;;;;;;5043727;28;20183;-48
2022/06/14 04:53:47;;;;;;;8.25;1.20;;;12.40;99.90;;;;;;5041946;28;20045;-50
2022/06/14 04:56:18;;;;;;;7.25;1.02;;;12.50;99.90;;;;;;5038073;28;20037;-48
2022/06/14 04:58:59;;;;;;;4.30;0.75;;;12.50;99.90;;;;;;5041779;28;20059;-48
2022/06/14 05:01:32;;;;;;;4.47;0.77;;;12.50;99.90;;;;;;5044432;28;20135;-48
2022/06/14 05:04:04;;;;;;;6.35;1.30;;;12.60;99.90;;;;;;5047776;28;20098;-48
2022/06/14 05:06:42;;;;;;;5.40;1.20;;;12.70;99.90;;;;;;5034774;28;20037;-47
2022/06/14 05:09:22;;;;;;;8.60;1.08;;;12.70;99.90;;;;;;5034847;28;20159;-49
2022/06/14 05:12:01;;;;;;;4.57;0.85;;;12.70;99.90;;;;;;5032587;28;20044;-47
2022/06/14 05:14:49;;;;;;;6.13;1.23;;;12.80;99.90;;;;;;5039255;28;20076;-48
2022/06/14 05:17:21;;;;;;;7.07;0.82;;;12.90;99.90;;;;;;5029475;28;20051;-49
2022/06/14 05:20:12;;;;;;;6.13;0.93;;;13.00;99.90;;;;;;5034303;28;20037;-47
2022/06/14 05:22:56;;;;;;;6.82;1.20;;;13.20;99.90;;;;;;5037950;28;20127;-48
2022/06/14 05:25:22;;;;;;;7.97;1.15;;;13.60;99.90;;;;;;5037447;28;20044;-48
2022/06/14 05:27:55;;;;;;;6.63;1.00;;;14.00;99.90;;;;;;5031385;28;20130;-52
2022/06/14 05:30:37;;;;;;;6.53;1.17;;;14.40;99.90;;;;;;5037979;28;20044;-47
2022/06/14 05:33:42;;;;;;;7.07;1.02;;;14.60;99.90;;;;;;5035667;28;20154;-47
2022/06/14 05:36:17;;;;;;;6.40;0.90;;;14.70;99.90;;;;;;5032928;28;20387;-48
2022/06/14 05:38:58;;;;;;;5.35;0.80;;;14.80;99.90;;;;;;5041784;28;20068;-47
2022/06/14 05:41:24;;;;;;;6.10;1.15;;;14.90;99.90;;;;;;5036577;28;20057;-47
2022/06/14 05:43:55;;;;;;;6.07;0.85;;;14.90;99.90;;;;;;5038214;28;20056;-47
2022/06/14 05:46:47;;;;;;;5.18;1.00;;;15.00;99.90;;;;;;5041309;28;20049;-50
2022/06/14 05:49:19;;;;;;;5.75;0.88;;;15.10;99.90;;;;;;5033951;28;20037;-48
2022/06/14 05:51:56;;;;;;;7.37;0.80;;;15.20;99.90;;;;;;5035270;28;20389;-50
2022/06/14 05:54:30;;;;;;;5.88;0.68;;;15.30;99.90;;;;;;5036580;28;20037;-47
2022/06/14 05:57:19;;;;;;;4.60;0.80;;;15.30;99.90;;;;;;5040249;28;20043;-47
2022/06/14 05:59:56;;;;;;;6.93;1.23;;;15.40;99.90;;;;;;5039828;28;20055;-48
2022/06/14 06:02:37;;;;;;;3.95;0.60;;;15.50;99.90;;;;;;5051917;28;20048;-47
2022/06/14 06:05:12;;;;;;;4.88;0.80;;;15.60;99.90;;;;;;5037797;28;20119;-48
2022/06/14 06:08:01;;;;;;;8.65;0.88;;;15.70;99.90;;;;;;5036489;28;20043;-48
2022/06/14 06:10:33;;;;;;;4.20;0.75;;;15.80;99.90;;;;;;5045574;28;20079;-51
2022/06/14 06:13:10;;;;;;;7.20;0.70;;;15.80;99.90;;;;;;5029232;28;20064;-49
2022/06/14 06:15:46;;;;;;;5.97;0.88;;;15.90;99.90;;;;;;5034894;28;20052;-49
2022/06/14 06:18:31;;;;;;;4.45;0.68;;;15.90;99.90;;;;;;5035948;28;20132;-47
2022/06/14 06:21:34;;;;;;;7.18;0.85;;;16.00;99.90;;;;;;5036189;28;20077;-47
2022/06/14 06:24:27;;;;;;;7.45;0.80;;;16.10;99.90;;;;;;5034621;28;20056;-48
2022/06/14 06:27:02;;;;;;;4.60;0.70;;;16.10;99.90;;;;;;5040474;28;20120;-48
2022/06/14 06:29:38;;;;;;;6.22;0.75;;;16.20;99.90;;;;;;5028618;28;20099;-48
2022/06/14 06:32:06;;;;;;;8.43;0.73;;;16.30;99.90;;;;;;5039354;28;20656;-52
2022/06/14 06:34:32;;;;;;;5.80;0.70;;;16.30;99.90;;;;;;5040992;28;20053;-51
2022/06/14 06:37:04;;;;;;;4.13;0.60;;;16.40;99.90;;;;;;5053597;28;20036;-49
2022/06/14 06:39:42;;;;;;;6.20;0.90;;;16.50;99.90;;;;;;5035442;28;20065;-49
2022/06/14 06:42:32;;;;;;;5.88;0.70;;;16.50;99.90;;;;;;5028849;28;20047;-50
2022/06/14 06:45:27;;;;;;;3.63;0.60;;;16.60;99.90;;;;;;5038669;28;20039;-48
2022/06/14 06:48:00;;;;;;;4.13;0.63;;;16.70;99.90;;;;;;5026118;28;20050;-47
2022/06/14 06:50:27;;;;;;;5.63;0.70;;;16.80;99.90;;;;;;5038049;28;20056;-48
2022/06/14 06:53:05;;;;;;;5.57;0.60;;;16.90;99.90;;;;;;5041970;28;20042;-50
2022/06/14 06:55:40;;;;;;;5.85;0.73;;;17.00;99.90;;;;;;5040820;28;20044;-50
2022/06/14 06:58:34;;;;;;;4.97;0.65;;;17.00;99.90;;;;;;5027199;28;20487;-48
2022/06/14 07:01:10;;;;;;;4.55;0.75;;;17.20;99.90;;;;;;5030606;28;20049;-49
2022/06/14 07:03:36;;;;;;;5.45;0.77;;;17.20;99.90;;;;;;5031078;28;20091;-48
2022/06/14 07:06:05;;;;;;;4.65;0.55;;;17.30;99.90;;;;;;5043549;28;20032;-51
2022/06/14 07:08:57;;;;;;;3.72;0.77;;;17.30;99.90;;;;;;5039066;28;20037;-48
2022/06/14 07:11:33;;;;;;;5.28;0.63;;;17.40;99.90;;;;;;5036690;28;20075;-50
2022/06/14 07:14:05;;;;;;;5.93;0.73;;;17.50;99.90;;;;;;5039161;28;20072;-49
2022/06/14 07:16:37;;;;;;;6.22;0.75;;;17.60;99.90;;;;;;5037011;28;20072;-50
2022/06/14 07:19:22;;;;;;;4.38;0.70;;;17.60;99.90;;;;;;5038370;28;20033;-50
2022/06/14 07:22:20;;;;;;;7.65;0.60;;;17.70;99.90;;;;;;5036198;28;20041;-52
2022/06/14 07:24:58;;;;;;;5.43;0.75;;;17.80;99.90;;;;;;5027402;28;20041;-48
2022/06/14 07:27:30;;;;;;;6.65;0.52;;;17.80;99.90;;;;;;5036203;28;20048;-50
2022/06/14 07:30:14;;;;;;;4.55;0.88;;;17.80;99.90;;;;;;5034304;28;20057;-49
2022/06/14 07:32:46;;;;;;;5.93;0.70;;;17.90;99.90;;;;;;5043850;28;20091;-50
2022/06/14 07:35:21;;;;;;;5.50;0.52;;;18.00;99.90;;;;;;5029691;28;20044;-50
2022/06/14 07:37:58;;;;;;;4.85;0.52;;;18.10;99.90;;;;;;5037758;28;20032;-48
2022/06/14 07:40:37;;;;;;;4.32;0.70;;;18.10;99.90;;;;;;5043724;28;20057;-47
2022/06/14 07:43:13;;;;;;;3.35;0.50;;;18.20;99.90;;;;;;5033663;28;20049;-53
2022/06/14 07:45:46;;;;;;;6.45;0.50;;;18.30;99.90;;;;;;5037505;28;20037;-48
2022/06/14 07:48:46;;;;;;;4.82;0.70;;;18.30;99.90;;;;;;5032398;28;20130;-51
2022/06/14 07:51:25;;;;;;;6.43;0.65;;;18.40;99.90;;;;;;5046713;28;20057;-50
2022/06/14 07:54:13;;;;;;;7.07;0.57;;;18.50;99.90;;;;;;5042171;28;20099;-49
2022/06/14 07:57:01;;;;;;;4.10;0.57;;;18.50;99.90;;;;;;5046129;28;20041;-49
2022/06/14 07:59:37;;;;;;;6.03;0.60;;;18.60;99.90;;;;;;5035936;28;20037;-49
2022/06/14 08:02:20;;;;;;;6.32;0.85;;;18.60;99.90;;;;;;5031742;28;20289;-49
2022/06/14 08:04:54;;;;;;;5.80;0.70;;;18.70;99.90;;;;;;5045122;28;20054;-49
2022/06/14 08:07:21;;;;;;;6.25;0.70;;;18.80;99.90;;;;;;5048994;28;20087;-51
2022/06/14 08:09:52;;;;;;;7.32;0.70;;;18.80;99.90;;;;;;5038069;28;20542;-51
2022/06/14 08:12:44;;;;;;;5.63;0.55;;;18.90;99.90;;;;;;5046871;28;20052;-49
2022/06/14 08:15:12;;;;;;;8.52;0.75;;;19.00;99.90;;;;;;5051169;28;20045;-50
2022/06/14 08:17:47;;;;;;;8.25;0.85;;;19.00;99.90;;;;;;5042180;28;20045;-52
2022/06/14 08:20:24;;;;;;;6.00;0.70;;;19.10;99.90;;;;;;5041291;28;20402;-51
2022/06/14 08:22:56;;;;;;;7.88;0.93;;;19.20;99.90;;;;;;5028878;28;20045;-49
2022/06/14 08:25:33;;;;;;;9.38;0.68;;;19.30;99.90;;;;;;5048973;28;20162;-51
2022/06/14 08:28:06;;;;;;;8.02;0.77;;;19.30;99.90;;;;;;5035066;28;20428;-50
2022/06/14 08:30:51;;;;;;;;;;;19.30;99.90;;;;;;5018491;28;20083;-52
2022/06/14 08:33:41;;;;;;;5.65;0.93;;;19.30;99.90;;;;;;5050928;28;20008;-52
2022/06/14 08:36:15;;;;;;;5.40;0.85;;;19.30;99.90;;;;;;5051962;28;20106;-52
2022/06/14 08:39:05;;;;;;;4.72;0.60;;;19.40;99.90;;;;;;5050940;28;20100;-51
2022/06/14 08:41:40;;;;;;;4.93;0.65;;;19.50;99.90;;;;;;5050848;28;20540;-52
2022/06/14 08:44:14;;;;;;;4.85;0.52;;;19.50;99.90;;;;;;5035633;28;20107;-52
2022/06/14 08:46:50;;;;;;;7.35;0.57;;;19.50;99.90;;;;;;5030188;28;20041;-49
2022/06/14 08:49:34;;;;;;;6.80;0.52;;;19.50;99.90;;;;;;5050093;28;20041;-50
2022/06/14 08:52:15;;;;;;;4.20;0.60;;;19.60;99.90;;;;;;5049893;28;20079;-47
2022/06/14 08:55:13;;;;;;;5.88;0.40;;;19.70;99.90;;;;;;5051223;28;20454;-50
2022/06/14 08:58:00;;;;;;;6.07;0.70;;;19.70;99.90;;;;;;5051041;28;20047;-51
2022/06/14 09:00:56;;;;;;;3.65;0.30;;;19.70;99.90;;;;;;5050783;28;20048;-47
2022/06/14 09:03:29;;;;;;;3.88;0.50;;;19.70;99.90;;;;;;5049859;28;20605;-50
2022/06/14 09:06:29;;;;;;;4.03;0.40;;;19.60;99.90;;;;;;5050113;28;20495;-50
2022/06/14 09:08:54;;;;;;;2.88;0.43;;;19.70;99.90;;;;;;5049494;28;20053;-46
2022/06/14 09:11:29;;;;;;;4.72;0.40;;;19.70;99.90;;;;;;5049755;28;20072;-50
2022/06/14 09:14:19;;;;;;;4.22;0.60;;;19.70;99.90;;;;;;5045436;28;20246;-49
2022/06/14 09:17:42;;;;;;;3.72;0.47;;;19.70;99.90;;;;;;5044653;28;20043;-51
2022/06/14 09:20:27;;;;;;;5.68;0.50;;;19.70;99.90;;;;;;5033609;28;20045;-53
2022/06/14 09:23:18;;;;;;;3.42;0.35;;;19.70;99.90;;;;;;5048446;28;20036;-47
2022/06/14 09:26:03;;;;;;;3.15;0.50;;;19.80;99.90;;;;;;5038826;28;20060;-48
2022/06/14 09:28:59;;;;;;;2.55;0.40;;;19.90;99.90;;;;;;5044829;28;20039;-48
2022/06/14 09:31:43;;;;;;;3.25;0.40;;;20.00;99.90;;;;;;5044851;28;20402;-49
2022/06/14 09:34:43;;;;;;;3.03;0.38;;;20.00;99.90;;;;;;5043380;28;20117;-51
2022/06/14 09:37:37;;;;;;;2.45;0.30;;;20.20;99.90;;;;;;5045252;28;20037;-47
2022/06/14 09:40:31;;;;;;;2.70;0.40;;;20.20;99.90;;;;;;5033717;28;20057;-50
2022/06/14 09:43:36;;;;;;;2.55;0.30;;;20.30;99.90;;;;;;5044160;28;20098;-47
2022/06/14 09:46:11;;;;;;;2.92;0.40;;;20.40;99.90;;;;;;5044560;28;20045;-49
2022/06/14 09:49:14;;;;;;;2.30;0.40;;;20.40;99.90;;;;;;5044528;28;20120;-50
2022/06/14 09:52:01;;;;;;;2.97;0.30;;;20.50;99.90;;;;;;5034116;28;20037;-47
2022/06/14 09:54:35;;;;;;;3.78;0.32;;;20.60;99.90;;;;;;5046496;28;20040;-49
2022/06/14 09:57:48;;;;;;;2.92;0.63;;;20.60;99.90;;;;;;5030008;28;20414;-50
2022/06/14 10:00:17;;;;;;;2.60;0.40;;;20.60;99.90;;;;;;5043497;28;20053;-48
2022/06/14 10:02:51;;;;;;;2.28;0.30;;;20.60;99.90;;;;;;5033297;28;20514;-49
2022/06/14 10:05:40;;;;;;;2.63;0.20;;;20.60;99.90;;;;;;5031880;28;20163;-49
2022/06/14 10:08:16;;;;;;;3.30;0.30;;;20.70;99.90;;;;;;5044382;28;20037;-48
2022/06/14 10:11:10;;;;;;;2.38;0.30;;;20.70;99.90;;;;;;5037087;28;20049;-49
2022/06/14 10:13:55;;;;;;;4.15;0.30;;;20.80;99.90;;;;;;5044512;28;20037;-48
2022/06/14 10:16:49;;;;;;;4.13;0.43;;;20.80;99.90;;;;;;5037216;28;20329;-50
2022/06/14 10:19:20;;;;;;;3.10;0.30;;;20.90;99.90;;;;;;5036302;28;20458;-52
2022/06/14 10:21:52;;;;;;;5.28;0.30;;;20.90;99.90;;;;;;5035092;28;20094;-48
2022/06/14 10:24:22;;;;;;;2.58;0.30;;;21.00;99.90;;;;;;5029796;28;20116;-49
2022/06/14 10:30:22;;;;;;;2.42;0.25;;;21.20;99.90;;;;;;5046837;28;20048;-48
2022/06/14 10:33:09;;;;;;;2.15;0.30;;;21.20;99.90;;;;;;5035854;28;20487;-48
2022/06/14 10:36:01;;;;;;;3.90;0.40;;;21.20;99.90;;;;;;5034025;28;20061;-48
2022/06/14 10:38:39;;;;;;;2.72;0.30;;;21.30;99.90;;;;;;5039199;28;20037;-49
2022/06/14 10:41:30;;;;;;;3.80;0.40;;;21.30;99.90;;;;;;5037203;28;20044;-49
2022/06/14 10:44:16;;;;;;;1.95;0.30;;;21.30;99.90;;;;;;5032585;28;20048;-49
2022/06/14 10:47:01;;;;;;;3.67;0.30;;;21.40;99.90;;;;;;5036416;28;20399;-47
2022/06/14 10:49:36;;;;;;;2.30;0.30;;;21.40;99.90;;;;;;5038455;28;20094;-47
2022/06/14 10:52:36;;;;;;;2.63;0.20;;;21.50;99.90;;;;;;5039400;28;20124;-50
2022/06/14 10:55:11;;;;;;;2.05;0.30;;;21.50;99.90;;;;;;5033938;28;20045;-48
2022/06/14 10:57:52;;;;;;;2.55;0.30;;;21.60;99.20;;;;;;5032365;28;20071;-48
2022/06/14 11:00:44;;;;;;;2.58;0.30;;;21.60;98.30;;;;;;5037213;28;20040;-49
2022/06/14 11:03:32;;;;;;;3.03;0.30;;;21.70;98.60;;;;;;5041316;28;20025;-49
2022/06/14 11:06:13;;;;;;;2.13;0.20;;;21.70;98.80;;;;;;5036037;28;20038;-47
2022/06/14 11:09:01;;;;;;;3.70;0.40;;;21.80;99.30;;;;;;5041722;28;20053;-47
2022/06/14 11:11:52;;;;;;;2.40;0.28;;;21.70;98.90;;;;;;5038459;28;20041;-48
2022/06/14 11:14:50;;;;;;;2.50;0.30;;;21.70;99.20;;;;;;5045852;28;20493;-48
2022/06/14 11:17:44;;;;;;;3.13;0.40;;;21.70;98.80;;;;;;5040802;28;20667;-47
2022/06/14 11:20:25;;;;;;;2.47;0.40;;;21.70;99.50;;;;;;5045891;28;20052;-47
2022/06/14 11:23:07;;;;;;;3.97;0.45;;;21.70;99.80;;;;;;5033607;28;20513;-51
2022/06/14 11:25:41;;;;;;;3.67;0.30;;;21.60;99.80;;;;;;5036887;28;20108;-49
2022/06/14 11:28:27;;;;;;;3.05;0.30;;;21.60;99.90;;;;;;5043668;28;20025;-49
2022/06/14 11:31:19;;;;;;;2.60;0.40;;;21.50;99.90;;;;;;5047668;28;20469;-48
2022/06/14 11:34:26;;;;;;;3.42;0.50;;;21.50;99.90;;;;;;5043570;28;20849;-51
2022/06/14 11:37:20;;;;;;;3.35;0.30;;;21.40;99.90;;;;;;5047375;28;20047;-49
2022/06/14 11:39:54;;;;;;;2.88;0.43;;;21.40;99.90;;;;;;5042963;28;20078;-50
2022/06/14 11:42:28;;;;;;;3.55;0.30;;;21.30;99.90;;;;;;5040111;28;20529;-50
2022/06/14 11:45:05;;;;;;;3.33;0.45;;;21.30;99.90;;;;;;5032989;28;20048;-50
2022/06/14 11:47:50;;;;;;;3.35;0.50;;;21.30;99.90;;;;;;5038405;28;20041;-51
2022/06/14 11:50:40;;;;;;;2.08;0.30;;;21.20;99.90;;;;;;5050626;28;20033;-52
2022/06/14 11:53:08;;;;;;;2.65;0.40;;;21.20;99.90;;;;;;5043689;28;20040;-49
2022/06/14 11:55:48;;;;;;;2.65;0.40;;;21.10;99.90;;;;;;5032196;28;20554;-49
2022/06/14 11:58:19;;;;;;;3.20;0.60;;;21.10;99.90;;;;;;5032370;28;20102;-50
2022/06/14 12:01:07;;;;;;;4.65;0.60;;;21.10;99.90;;;;;;5047280;28;20536;-53
2022/06/14 12:03:59;;;;;;;2.83;0.40;;;21.10;99.90;;;;;;5041751;28;20094;-52
2022/06/14 12:06:37;;;;;;;2.22;0.38;;;21.20;99.90;;;;;;5050243;28;20226;-49
2022/06/14 12:09:42;;;;;;;3.70;0.40;;;21.10;99.90;;;;;;5033905;28;20039;-49
2022/06/14 12:12:18;;;;;;;4.38;0.47;;;21.10;99.90;;;;;;5021924;28;20045;-50
2022/06/14 12:14:55;;;;;;;4.03;0.43;;;21.00;99.90;;;;;;5027447;28;20443;-48
2022/06/14 12:17:41;;;;;;;2.72;0.40;;;21.00;99.90;;;;;;5032183;28;20056;-52
2022/06/14 12:20:16;;;;;;;4.22;0.40;;;21.00;99.90;;;;;;5049550;28;20455;-49
2022/06/14 12:22:51;;;;;;;3.85;0.60;;;21.00;99.90;;;;;;5049230;28;20585;-50
2022/06/14 12:28:42;;;;;;;5.03;0.50;;;20.90;99.90;;;;;;5047929;28;20114;-49
2022/06/14 12:31:23;;;;;;;4.18;0.40;;;20.90;99.90;;;;;;5047677;28;20036;-50
2022/06/14 12:33:56;;;;;;;4.68;0.52;;;20.90;99.90;;;;;;5049254;28;20050;-48
2022/06/14 12:36:34;;;;;;;;;;;20.90;99.90;;;;;;5031587;28;20096;-51
2022/06/14 12:39:05;;;;;;;3.63;0.55;;;20.90;99.90;;;;;;5044697;28;20371;-50
2022/06/14 12:41:36;;;;;;;3.92;0.50;;;20.90;99.90;;;;;;5046278;28;20052;-50
2022/06/14 12:44:38;;;;;;;4.40;0.77;;;20.90;99.90;;;;;;5044059;28;20084;-50
2022/06/14 12:47:11;;;;;;;3.28;0.40;;;21.00;99.90;;;;;;5043414;28;20044;-48
2022/06/14 12:49:43;;;;;;;5.28;0.60;;;21.00;99.90;;;;;;5032332;28;20033;-50
2022/06/14 12:52:17;;;;;;;3.63;0.70;;;21.10;99.90;;;;;;5032269;28;20044;-51
2022/06/14 12:54:45;;;;;;;3.65;0.50;;;21.10;99.90;;;;;;5047035;28;20487;-48
2022/06/14 12:57:26;;;;;;;3.17;0.40;;;21.20;99.90;;;;;;5037543;28;20483;-51
2022/06/14 13:00:03;;;;;;;4.38;0.55;;;21.20;99.90;;;;;;5048625;28;20037;-47
2022/06/14 13:02:33;;;;;;;3.33;0.47;;;21.30;99.90;;;;;;5042533;28;20264;-47
2022/06/14 13:05:12;;;;;;;3.63;0.57;;;21.40;99.90;;;;;;5047246;28;20033;-48
2022/06/14 13:08:10;;;;;;;2.65;0.35;;;21.40;99.90;;;;;;5045703;28;20098;-48
2022/06/14 13:10:36;;;;;;;2.67;0.30;;;21.50;99.90;;;;;;5048114;28;20487;-47
2022/06/14 13:13:39;;;;;;;3.03;0.43;;;21.50;99.90;;;;;;5036122;28;20507;-47
2022/06/14 13:16:39;;;;;;;2.75;0.32;;;21.50;99.90;;;;;;5047094;28;20088;-47
2022/06/14 13:19:16;;;;;;;2.92;0.40;;;21.50;99.90;;;;;;5047498;28;20052;-49
2022/06/14 13:22:05;;;;;;;2.13;0.30;;;21.50;99.90;;;;;;5030751;28;20045;-48
2022/06/14 13:24:43;;;;;;;1.80;0.30;;;21.60;99.90;;;;;;5041225;28;20041;-47
2022/06/14 13:27:26;;;;;;;3.30;0.40;;;21.70;99.90;;;;;;5046318;28;20088;-47
2022/06/14 13:29:57;;;;;;;;;;;21.80;99.90;;;;;;5043087;28;20041;-47
2022/06/14 13:32:36;;;;;;;2.88;0.47;;;21.80;99.90;;;;;;5055083;28;19967;-47
2022/06/14 13:35:52;;;;;;;2.22;0.40;;;21.80;99.90;;;;;;5061732;28;20107;-47
2022/06/14 13:38:40;;;;;;;3.63;0.40;;;21.90;99.90;;;;;;5035070;28;20090;-47
2022/06/14 13:41:12;;;;;;;3.33;0.40;;;22.00;99.90;;;;;;5046531;28;20466;-47
2022/06/14 13:43:52;;;;;;;4.38;0.50;;;22.00;99.90;;;;;;5032611;28;20150;-47
2022/06/14 13:46:40;;;;;;;2.83;0.30;;;22.00;99.90;;;;;;5035208;28;20550;-50
2022/06/14 13:49:26;;;;;;;4.57;0.38;;;22.10;99.90;;;;;;5046817;28;20072;-47
2022/06/14 13:52:15;;;;;;;2.60;0.50;;;22.10;99.90;;;;;;5046581;28;20129;-46
2022/06/14 13:55:05;;;;;;;3.40;0.30;;;22.00;99.90;;;;;;5045207;28;20041;-48
2022/06/14 13:57:43;;;;;;;2.60;0.40;;;21.90;99.90;;;;;;5043427;28;20041;-48
2022/06/14 14:00:29;;;;;;;3.22;0.40;;;21.90;99.90;;;;;;5030488;28;20128;-46
2022/06/14 14:03:14;;;;;;;1.40;0.30;;;21.80;99.90;;;;;;5042655;28;20048;-47
2022/06/14 14:05:47;;;;;;;4.57;0.55;;;21.80;99.90;;;;;;5025138;28;20167;-47
2022/06/14 14:08:19;;;;;;;;;;;21.70;99.90;;;;;;5035272;28;20074;-50